Time;durP1;ratioP1;P1;durP2;ratioP2;P2;SDS_P1;SDS_P2;PMS_P1;PMS_P2;Temp;Humidity;BMP_temperature;BMP_pressure;BME280_temperature;BME280_humidity;BME280_pressure;Samples;Min_cycle;Max_cycle;Signal;HPM_P1;HPM_P2
2024/01/12 00:02:02;;;;;;;6.13;5.53;;;16.70;54.30;17.50;102480.00;;;;5066114;28;20180;-46
2024/01/12 00:04:27;;;;;;;5.63;5.13;;;16.70;54.30;17.50;102477.00;;;;5033897;28;20201;-47
2024/01/12 00:06:53;;;;;;;5.80;5.30;;;16.70;54.30;17.50;102476.00;;;;5068045;28;20177;-46
2024/01/12 00:09:19;;;;;;;5.70;5.10;;;16.70;54.20;17.50;102475.00;;;;5067969;28;20577;-46
2024/01/12 00:11:45;;;;;;;5.77;5.27;;;16.70;54.20;17.50;102475.00;;;;5049593;28;20198;-47
2024/01/12 00:14:12;;;;;;;5.80;5.30;;;16.70;54.20;17.50;102469.00;;;;5067741;28;20720;-47
2024/01/12 00:16:38;;;;;;;5.73;5.23;;;16.70;54.30;17.30;102461.00;;;;5067900;28;20178;-46
2024/01/12 00:19:03;;;;;;;5.53;5.03;;;16.70;54.20;17.50;102461.00;;;;5066274;28;20208;-46
2024/01/12 00:21:29;;;;;;;5.67;5.17;;;16.60;54.20;17.50;102463.00;;;;5067583;28;20179;-46
2024/01/12 00:23:55;;;;;;;5.40;4.90;;;16.70;54.30;17.50;102463.00;;;;5067672;28;20207;-47
2024/01/12 00:26:20;;;;;;;6.17;5.57;;;16.70;54.30;17.50;102466.00;;;;5067791;28;20172;-47
2024/01/12 00:28:46;;;;;;;5.47;4.97;;;16.70;54.10;17.50;102463.00;;;;5067656;28;20181;-47
2024/01/12 00:31:12;;;;;;;5.30;4.90;;;16.70;54.10;17.50;102466.00;;;;5065499;28;20202;-46
2024/01/12 00:33:37;;;;;;;5.10;4.70;;;16.70;54.30;17.50;102465.00;;;;5053308;28;20233;-46
2024/01/12 00:36:04;;;;;;;5.63;5.13;;;16.70;54.10;17.50;102465.00;;;;5067318;28;20173;-47
2024/01/12 00:38:29;;;;;;;5.00;4.60;;;16.70;54.20;17.50;102458.00;;;;5067673;28;20176;-47
2024/01/12 00:40:55;;;;;;;5.53;5.03;;;16.70;54.30;17.50;102469.00;;;;5070553;28;20211;-46
2024/01/12 00:43:21;;;;;;;5.67;5.17;;;16.60;54.20;17.50;102463.00;;;;5070206;28;20172;-47
2024/01/12 00:45:46;;;;;;;4.80;4.40;;;16.70;54.20;17.50;102467.00;;;;5067050;28;20238;-47
2024/01/12 00:48:12;;;;;;;5.30;4.80;;;16.70;54.10;17.50;102466.00;;;;5067318;28;20181;-47
2024/01/12 00:50:38;;;;;;;5.50;5.00;;;16.70;54.10;17.50;102458.00;;;;5045956;28;20621;-46
2024/01/12 00:53:04;;;;;;;4.93;4.53;;;16.70;54.10;17.50;102468.00;;;;5067269;28;20173;-47
2024/01/12 00:55:30;;;;;;;5.47;4.97;;;16.70;54.20;17.50;102485.00;;;;5046119;28;20210;-47
2024/01/12 00:57:56;;;;;;;5.73;5.17;;;16.60;54.10;17.50;102476.00;;;;5067351;28;20169;-47
2024/01/12 01:00:22;;;;;;;5.50;5.00;;;16.70;54.20;17.50;102471.00;;;;5068410;28;20178;-47
2024/01/12 01:02:47;;;;;;;5.00;4.60;;;16.70;54.20;17.50;102475.00;;;;5066371;28;20670;-47
2024/01/12 01:05:13;;;;;;;5.10;4.70;;;16.70;54.10;17.50;102465.00;;;;5036781;28;20203;-46
2024/01/12 01:07:39;;;;;;;5.57;5.07;;;16.70;54.20;17.50;102464.00;;;;5045067;28;20185;-47
2024/01/12 01:10:05;;;;;;;5.00;4.60;;;16.70;54.10;17.50;102467.00;;;;5035708;28;20579;-47
2024/01/12 01:12:31;;;;;;;5.33;4.90;;;16.70;54.10;17.50;102467.00;;;;5082999;28;20338;-48
2024/01/12 01:14:57;;;;;;;5.20;4.70;;;16.70;54.10;17.50;102465.00;;;;5066268;28;20225;-47
2024/01/12 01:17:24;;;;;;;5.10;4.70;;;16.60;54.20;17.50;102455.00;;;;5066779;28;20180;-47
2024/01/12 01:19:50;;;;;;;5.07;4.67;;;16.70;54.20;17.50;102471.00;;;;5064549;28;20182;-47
2024/01/12 01:22:15;;;;;;;4.97;4.57;;;16.70;54.10;17.50;102465.00;;;;5064362;28;20187;-47
2024/01/12 01:24:41;;;;;;;5.50;5.00;;;16.70;54.10;17.50;102476.00;;;;5072917;28;20284;-47
2024/01/12 01:27:07;;;;;;;5.07;4.60;;;16.70;54.00;17.50;102487.00;;;;5070639;28;20255;-47
2024/01/12 01:29:33;;;;;;;5.40;4.90;;;16.70;54.00;17.50;102490.00;;;;5065833;28;20700;-47
2024/01/12 01:31:58;;;;;;;5.53;5.03;;;16.70;54.10;17.50;102486.00;;;;5063967;28;20174;-47
2024/01/12 01:34:24;;;;;;;5.10;4.70;;;16.70;54.00;17.50;102493.00;;;;5065966;28;20210;-47
2024/01/12 01:36:50;;;;;;;4.87;4.47;;;16.80;54.10;17.50;102481.00;;;;5065882;28;20176;-46
2024/01/12 01:39:15;;;;;;;5.00;4.60;;;16.70;54.10;17.50;102482.00;;;;5070700;28;20177;-47
2024/01/12 01:41:41;;;;;;;5.30;4.80;;;16.70;54.10;17.50;102477.00;;;;5065474;28;20258;-49
2024/01/12 01:44:07;;;;;;;5.47;4.97;;;16.80;54.10;17.50;102473.00;;;;5063834;28;20766;-47
2024/01/12 01:46:33;;;;;;;5.90;5.40;;;16.70;54.00;17.50;102466.00;;;;5065736;28;20191;-47
2024/01/12 01:48:58;;;;;;;5.20;4.70;;;16.80;54.10;17.50;102478.00;;;;5065401;28;20181;-46
2024/01/12 01:51:24;;;;;;;5.27;4.87;;;16.70;54.00;17.50;102480.00;;;;5045501;28;20235;-47
2024/01/12 01:53:50;;;;;;;5.00;4.60;;;16.70;54.00;17.50;102474.00;;;;5048245;28;20299;-47
2024/01/12 01:56:16;;;;;;;5.03;4.63;;;16.70;54.00;17.50;102488.00;;;;5034966;28;20177;-47
2024/01/12 01:58:42;;;;;;;5.37;4.87;;;16.70;54.00;17.50;102480.00;;;;5031929;28;20200;-46
2024/01/12 02:01:07;;;;;;;5.43;4.93;;;16.70;54.00;17.50;102492.00;;;;5067417;28;20195;-46
2024/01/12 02:03:33;;;;;;;5.40;5.00;;;16.70;54.00;17.50;102495.00;;;;5047729;28;20709;-46
2024/01/12 02:05:59;;;;;;;5.20;4.80;;;16.70;54.10;17.50;102483.00;;;;5047616;28;20196;-47
2024/01/12 02:08:25;;;;;;;5.57;5.07;;;16.70;54.10;17.50;102481.00;;;;5069184;28;20188;-47
2024/01/12 02:10:52;;;;;;;5.27;4.83;;;16.70;54.10;17.50;102479.00;;;;5068875;28;20671;-47
2024/01/12 02:13:19;;;;;;;4.97;4.57;;;16.80;54.10;17.50;102485.00;;;;5069174;28;20180;-48
2024/01/12 02:15:44;;;;;;;5.70;5.20;;;16.70;54.00;17.60;102482.00;;;;5047697;28;20230;-46
2024/01/12 02:18:10;;;;;;;5.40;4.90;;;16.70;54.00;17.50;102410.00;;;;5042812;28;20285;-47
2024/01/12 02:20:36;;;;;;;5.03;4.63;;;16.70;54.00;17.50;102488.00;;;;5068802;28;20246;-47
2024/01/12 02:23:01;;;;;;;5.20;4.80;;;16.70;54.00;17.50;102485.00;;;;5047213;28;20323;-47
2024/01/12 02:25:27;;;;;;;5.20;4.80;;;16.80;54.10;17.60;102476.00;;;;5068894;28;20282;-47
2024/01/12 02:27:53;;;;;;;5.13;4.63;;;16.70;54.00;17.60;102480.00;;;;5068836;28;20185;-47
2024/01/12 02:30:18;;;;;;;5.20;4.80;;;16.80;54.10;17.60;102476.00;;;;5052855;28;20207;-47
2024/01/12 02:32:44;;;;;;;5.50;5.00;;;16.70;54.00;17.50;102474.00;;;;5057437;28;20250;-47
2024/01/12 02:35:10;;;;;;;5.37;4.87;;;16.70;54.00;17.50;102461.00;;;;5067899;28;20200;-47
2024/01/12 02:37:35;;;;;;;4.80;4.40;;;16.80;54.10;17.50;102454.00;;;;5068503;28;20176;-46
2024/01/12 02:40:02;;;;;;;4.77;4.37;;;16.70;54.00;17.50;102471.00;;;;5046603;28;20186;-47
2024/01/12 02:42:28;;;;;;;5.13;4.73;;;16.80;54.10;17.50;102478.00;;;;5068675;28;20176;-46
2024/01/12 02:44:53;;;;;;;5.17;4.70;;;16.70;54.00;17.50;102485.00;;;;5067669;28;20206;-49
2024/01/12 02:47:19;;;;;;;5.00;4.60;;;16.70;54.00;17.50;102477.00;;;;5068635;28;20189;-47
2024/01/12 02:49:45;;;;;;;5.27;4.83;;;16.70;54.00;17.50;102482.00;;;;5068135;28;20223;-47
2024/01/12 02:52:11;;;;;;;5.03;4.57;;;16.70;54.00;17.50;102471.00;;;;5068290;28;20188;-47
2024/01/12 02:54:36;;;;;;;5.27;4.77;;;16.70;54.00;17.50;102466.00;;;;5070051;28;20196;-47
2024/01/12 02:57:02;;;;;;;4.97;4.57;;;16.80;54.10;17.50;102463.00;;;;5072799;28;20187;-53
2024/01/12 02:59:28;;;;;;;5.10;4.70;;;16.70;54.00;17.50;102465.00;;;;5068824;28;20211;-46
2024/01/12 03:01:53;;;;;;;5.30;4.80;;;16.70;54.00;17.50;102478.00;;;;5071128;28;20181;-50
2024/01/12 03:04:19;;;;;;;4.87;4.47;;;16.70;54.00;17.50;102472.00;;;;5078511;28;20209;-47
2024/01/12 03:06:45;;;;;;;5.40;4.90;;;16.80;54.10;17.50;102464.00;;;;5074238;28;20196;-47
2024/01/12 03:09:11;;;;;;;5.27;4.77;;;16.70;54.00;17.50;102469.00;;;;5069630;28;20233;-46
2024/01/12 03:11:36;;;;;;;5.37;4.87;;;16.80;54.10;17.50;102465.00;;;;5068596;28;20607;-47
2024/01/12 03:14:02;;;;;;;4.77;4.37;;;16.70;54.10;17.50;102453.00;;;;5067513;28;20212;-47
2024/01/12 03:16:28;;;;;;;5.10;4.70;;;16.80;54.10;17.50;102455.00;;;;5076091;28;20184;-47
2024/01/12 03:18:54;;;;;;;5.23;4.80;;;16.70;54.00;17.50;102453.00;;;;5077348;28;20662;-47
2024/01/12 03:21:19;;;;;;;4.67;4.27;;;16.70;54.00;17.50;102445.00;;;;5067988;28;20181;-47
2024/01/12 03:23:45;;;;;;;5.00;4.60;;;16.70;54.00;17.50;102453.00;;;;5067916;28;20255;-47
2024/01/12 03:26:11;;;;;;;5.00;4.60;;;16.70;54.00;17.50;102441.00;;;;5067659;28;20189;-47
2024/01/12 03:28:37;;;;;;;5.33;4.90;;;16.70;54.00;17.50;102439.00;;;;5049748;28;20176;-47
2024/01/12 03:31:06;;;;;;;5.10;4.67;;;16.80;53.90;17.60;102438.00;;;;5065755;28;20239;-46
2024/01/12 03:33:32;;;;;;;5.30;4.90;;;16.80;54.00;17.60;102439.00;;;;5067558;28;20181;-47
2024/01/12 03:35:58;;;;;;;5.60;5.10;;;16.80;54.00;17.60;102438.00;;;;5067304;28;20185;-46
2024/01/12 03:38:24;;;;;;;5.37;4.87;;;16.70;54.00;17.60;102447.00;;;;5052622;28;20246;-47
2024/01/12 03:40:50;;;;;;;5.27;4.77;;;16.80;54.10;17.50;102436.00;;;;5067109;28;20169;-48
2024/01/12 03:43:15;;;;;;;5.63;5.13;;;16.80;54.10;17.60;102438.00;;;;5065261;28;20181;-47
2024/01/12 03:45:41;;;;;;;5.20;4.70;;;16.70;54.00;17.60;102447.00;;;;5067208;28;20213;-47
2024/01/12 03:48:07;;;;;;;5.37;4.87;;;16.80;54.10;17.50;102438.00;;;;5036378;28;20249;-46
2024/01/12 03:50:33;;;;;;;5.57;5.07;;;16.80;54.10;17.50;102447.00;;;;5067148;28;20289;-47
2024/01/12 03:52:58;;;;;;;5.60;5.10;;;16.70;54.00;17.50;102439.00;;;;5067327;28;20209;-46
2024/01/12 03:55:24;;;;;;;5.50;5.00;;;16.70;54.00;17.50;102447.00;;;;5045701;28;20206;-46
2024/01/12 03:57:50;;;;;;;5.40;4.90;;;16.70;54.10;17.60;102449.00;;;;5067162;28;20174;-47
2024/01/12 04:00:16;;;;;;;5.10;4.70;;;16.70;54.00;17.50;102440.00;;;;5066718;28;20207;-47
2024/01/12 04:02:41;;;;;;;5.70;5.20;;;16.70;54.00;17.50;102448.00;;;;5068051;28;20671;-48
2024/01/12 04:05:07;;;;;;;5.40;4.90;;;16.70;54.00;17.50;102364.00;;;;5067952;28;20209;-47
2024/01/12 04:07:33;;;;;;;5.63;5.13;;;16.70;54.00;17.50;102429.00;;;;5068222;28;20176;-47
2024/01/12 04:09:59;;;;;;;5.30;4.80;;;16.70;54.00;17.50;102436.00;;;;5067325;28;20212;-47
2024/01/12 04:12:25;;;;;;;5.77;5.20;;;16.70;54.00;17.60;102412.00;;;;5067985;28;20266;-47
2024/01/12 04:14:51;;;;;;;6.30;5.07;;;16.70;54.00;17.60;102435.00;;;;5071987;28;20219;-47
2024/01/12 04:17:16;;;;;;;5.53;4.70;;;16.70;54.00;17.60;102439.00;;;;5072362;28;20311;-47
2024/01/12 04:19:42;;;;;;;5.70;5.17;;;16.70;54.00;17.60;102434.00;;;;5046108;28;20591;-46
2024/01/12 04:22:08;;;;;;;5.37;4.87;;;16.80;54.10;17.60;102424.00;;;;5067691;28;20184;-48
2024/01/12 04:24:33;;;;;;;5.33;4.83;;;16.80;54.10;17.60;102427.00;;;;5067770;28;20208;-47
2024/01/12 04:26:59;;;;;;;5.50;5.00;;;16.80;54.00;17.60;102434.00;;;;5067500;28;20200;-47
2024/01/12 04:29:25;;;;;;;5.37;4.87;;;16.80;53.90;17.60;102432.00;;;;5067411;28;20226;-46
2024/01/12 04:31:51;;;;;;;5.40;4.90;;;16.80;53.90;17.60;102447.00;;;;5067699;28;20189;-46
2024/01/12 04:34:16;;;;;;;5.60;4.60;;;16.80;54.10;17.60;102430.00;;;;5068120;28;20196;-47
2024/01/12 04:36:42;;;;;;;5.33;4.83;;;16.70;54.00;17.60;102434.00;;;;5067966;28;20298;-47
2024/01/12 04:39:08;;;;;;;5.70;5.07;;;16.70;54.00;17.60;102434.00;;;;5037057;28;20264;-52
2024/01/12 04:41:34;;;;;;;5.60;5.10;;;16.70;54.00;17.60;102432.00;;;;5067544;28;20177;-47
2024/01/12 04:43:59;;;;;;;5.43;4.93;;;16.80;54.10;17.60;102434.00;;;;5049179;28;20692;-47
2024/01/12 04:46:25;;;;;;;5.77;5.20;;;16.70;54.00;17.60;102436.00;;;;5067378;28;20191;-46
2024/01/12 04:48:51;;;;;;;4.93;4.53;;;16.80;54.00;17.60;102430.00;;;;5067350;28;20602;-46
2024/01/12 04:51:17;;;;;;;5.77;5.27;;;16.80;54.00;17.60;102415.00;;;;5071717;28;20216;-47
2024/01/12 04:53:43;;;;;;;5.90;5.40;;;16.80;54.00;17.60;102412.00;;;;5066840;28;20553;-47
2024/01/12 04:56:09;;;;;;;6.00;5.50;;;16.80;53.90;17.60;102417.00;;;;5076985;28;20182;-47
2024/01/12 04:58:34;;;;;;;5.73;5.20;;;16.80;54.50;17.60;102414.00;;;;5070472;28;20188;-47
2024/01/12 05:01:00;;;;;;;5.60;5.10;;;16.80;53.80;17.60;102408.00;;;;5067730;28;20185;-47
2024/01/12 05:03:26;;;;;;;5.93;5.43;;;16.80;53.80;17.60;102408.00;;;;5068599;28;20176;-47
2024/01/12 05:05:51;;;;;;;5.70;5.20;;;16.80;53.80;17.60;102410.00;;;;5068619;28;20219;-47
2024/01/12 05:08:17;;;;;;;5.60;5.10;;;16.80;53.90;17.60;102422.00;;;;5081213;28;20170;-47
2024/01/12 05:10:43;;;;;;;5.70;5.20;;;16.80;53.90;17.60;102413.00;;;;5070010;28;20200;-48
2024/01/12 05:13:08;;;;;;;5.90;5.40;;;16.80;54.00;17.60;102337.00;;;;5067824;28;20821;-46
2024/01/12 05:15:34;;;;;;;5.73;5.23;;;16.80;54.10;17.60;102419.00;;;;5067291;28;20193;-46
2024/01/12 05:18:00;;;;;;;6.10;5.50;;;16.80;54.10;17.60;102412.00;;;;5045482;28;20177;-47
2024/01/12 05:20:26;;;;;;;6.10;5.53;;;16.90;54.10;17.60;102407.00;;;;5067091;28;20183;-47
2024/01/12 05:22:51;;;;;;;6.00;5.40;;;16.80;54.00;17.60;102406.00;;;;5067355;28;20176;-46
2024/01/12 05:25:17;;;;;;;5.60;5.10;;;16.80;54.00;17.60;102403.00;;;;5071494;28;20208;-48
2024/01/12 05:27:43;;;;;;;6.07;5.30;;;16.80;54.00;17.60;102402.00;;;;5049967;28;20226;-47
2024/01/12 05:30:09;;;;;;;6.37;5.77;;;16.80;54.00;17.30;102407.00;;;;5071041;28;20695;-45
2024/01/12 05:32:35;;;;;;;5.80;5.20;;;16.80;54.10;17.60;102409.00;;;;5071267;28;20267;-47
2024/01/12 05:35:01;;;;;;;7.57;5.70;;;16.80;54.10;17.60;102412.00;;;;5072929;28;20277;-46
2024/01/12 05:37:27;;;;;;;5.60;5.10;;;16.90;54.20;17.60;102411.00;;;;5050990;28;20209;-46
2024/01/12 05:39:52;;;;;;;6.10;5.50;;;16.90;54.40;17.60;102413.00;;;;5070338;28;20173;-48
2024/01/12 05:42:18;;;;;;;6.50;5.80;;;16.80;54.40;17.60;102413.00;;;;5071057;28;20752;-46
2024/01/12 05:44:44;;;;;;;8.13;5.73;;;16.80;54.50;17.60;102415.00;;;;5068320;28;20196;-48
2024/01/12 05:47:09;;;;;;;9.60;5.90;;;16.80;54.80;17.60;102430.00;;;;5070086;28;20513;-47
2024/01/12 05:49:38;;;;;;;10.13;5.80;;;16.90;54.90;17.60;102441.00;;;;5065845;28;20205;-47
2024/01/12 05:52:04;;;;;;;11.80;6.00;;;16.80;54.90;17.60;102435.00;;;;5069302;28;20574;-46
2024/01/12 05:54:30;;;;;;;7.17;5.83;;;16.80;54.90;17.60;102443.00;;;;5081546;28;20196;-48
2024/01/12 05:56:56;;;;;;;8.37;6.30;;;16.80;54.90;17.60;102430.00;;;;5066853;28;20265;-47
2024/01/12 05:59:21;;;;;;;6.30;5.60;;;16.80;54.90;17.60;102437.00;;;;5068485;28;20499;-47
2024/01/12 06:01:48;;;;;;;10.97;6.10;;;16.80;54.90;17.60;102425.00;;;;5070086;28;20178;-47
2024/01/12 06:04:13;;;;;;;9.00;5.73;;;16.80;54.90;17.60;102423.00;;;;5069979;28;20703;-47
2024/01/12 06:06:42;;;;;;;7.17;5.90;;;16.80;54.90;17.60;102439.00;;;;5070135;28;20259;-47
2024/01/12 06:09:08;;;;;;;6.60;5.93;;;16.80;54.80;17.60;102439.00;;;;5068811;28;20182;-47
2024/01/12 06:11:34;;;;;;;7.93;6.30;;;16.80;54.80;17.60;102445.00;;;;5072267;28;20196;-47
2024/01/12 06:14:00;;;;;;;7.87;6.10;;;16.80;54.80;17.60;102442.00;;;;5070192;28;20198;-46
2024/01/12 06:16:26;;;;;;;7.53;5.80;;;16.80;54.80;17.60;102452.00;;;;5070182;28;20672;-46
2024/01/12 06:18:52;;;;;;;6.30;5.67;;;16.80;54.80;17.60;102448.00;;;;5067686;28;20193;-47
2024/01/12 06:21:17;;;;;;;7.13;5.93;;;16.80;54.80;17.60;102443.00;;;;5069278;28;20204;-47
2024/01/12 06:23:43;;;;;;;6.57;5.80;;;16.80;54.80;17.60;102461.00;;;;5069223;28;20181;-46
2024/01/12 06:26:09;;;;;;;6.53;5.90;;;16.80;54.70;17.60;102448.00;;;;5069565;28;20684;-47
2024/01/12 06:28:34;;;;;;;6.37;5.77;;;16.80;54.70;17.60;102445.00;;;;5069733;28;20193;-46
2024/01/12 06:31:00;;;;;;;6.60;5.90;;;16.80;54.70;17.60;102450.00;;;;5068744;28;20209;-46
2024/01/12 06:33:26;;;;;;;6.20;5.60;;;16.80;54.70;17.60;102441.00;;;;5052421;28;20586;-45
2024/01/12 06:35:51;;;;;;;7.43;5.80;;;16.80;54.70;17.60;102447.00;;;;5047505;28;20250;-46
2024/01/12 06:38:17;;;;;;;7.47;5.90;;;16.80;54.70;17.60;102446.00;;;;5069469;28;20173;-48
2024/01/12 06:40:43;;;;;;;6.57;5.97;;;16.80;54.80;17.60;102442.00;;;;5056028;28;20228;-46
2024/01/12 06:43:09;;;;;;;5.93;5.43;;;16.80;54.70;17.60;102440.00;;;;5066097;28;20245;-46
2024/01/12 06:45:34;;;;;;;5.77;5.27;;;16.80;54.70;17.60;102438.00;;;;5073916;28;20426;-52
2024/01/12 06:48:00;;;;;;;6.03;5.40;;;16.80;54.70;17.60;102442.00;;;;5079913;28;20646;-47
2024/01/12 06:50:28;;;;;;;6.13;5.07;;;16.70;54.60;17.40;102437.00;;;;5051964;28;20249;-46
2024/01/12 06:52:55;;;;;;;6.27;5.60;;;16.80;54.70;17.60;102441.00;;;;5069178;28;20188;-47
2024/01/12 06:55:21;;;;;;;6.23;5.60;;;16.80;54.70;17.60;102426.00;;;;5070617;28;20280;-47
2024/01/12 06:57:47;;;;;;;6.60;5.40;;;16.80;54.60;17.60;102432.00;;;;5071161;28;20657;-47
2024/01/12 07:00:15;;;;;;;5.77;5.27;;;16.80;54.60;17.60;102435.00;;;;5077793;28;20275;-47
2024/01/12 07:02:40;;;;;;;6.13;5.53;;;16.80;54.50;17.60;102432.00;;;;5068751;28;20814;-47
2024/01/12 07:05:07;;;;;;;5.77;5.17;;;16.80;54.50;17.60;102435.00;;;;5068822;28;20206;-47
2024/01/12 07:07:33;;;;;;;6.07;5.30;;;16.80;54.50;17.60;102435.00;;;;5073126;28;20174;-47
2024/01/12 07:09:58;;;;;;;5.20;4.80;;;16.80;54.50;17.60;102430.00;;;;5065861;28;20220;-46
2024/01/12 07:12:24;;;;;;;5.70;5.10;;;16.80;54.40;17.60;102422.00;;;;5063598;28;20188;-47
2024/01/12 07:14:50;;;;;;;5.50;5.00;;;16.80;54.40;17.60;102422.00;;;;5068816;28;20254;-47
2024/01/12 07:17:16;;;;;;;5.40;4.90;;;16.80;54.40;17.60;102416.00;;;;5072883;28;20176;-47
2024/01/12 07:19:45;;;;;;;5.33;4.83;;;16.80;54.40;17.60;102420.00;;;;5066203;28;20586;-47
2024/01/12 07:22:11;;;;;;;5.77;5.17;;;16.90;54.40;17.60;102417.00;;;;5068451;28;20185;-47
2024/01/12 07:24:37;;;;;;;5.53;5.03;;;16.80;54.30;17.70;102420.00;;;;5070582;28;20196;-47
2024/01/12 07:27:03;;;;;;;5.60;5.10;;;16.80;54.30;17.60;102422.00;;;;5069543;28;20181;-46
2024/01/12 07:29:29;;;;;;;5.30;4.80;;;16.80;54.20;17.70;102425.00;;;;5067064;28;20761;-46
2024/01/12 07:31:56;;;;;;;5.40;4.90;;;16.90;54.30;17.70;102423.00;;;;5066415;28;20185;-47
2024/01/12 07:34:22;;;;;;;4.93;4.53;;;16.80;54.30;17.60;102423.00;;;;5068169;28;20268;-46
2024/01/12 07:36:48;;;;;;;5.23;4.73;;;16.80;54.40;17.60;102418.00;;;;5072557;28;20290;-46
2024/01/12 07:39:13;;;;;;;5.37;4.87;;;16.80;54.40;17.60;102425.00;;;;5068953;28;20177;-46
2024/01/12 07:41:41;;;;;;;6.53;4.87;;;16.80;54.40;17.60;102426.00;;;;5069406;28;20176;-46
2024/01/12 07:44:07;;;;;;;5.23;4.73;;;16.80;54.50;17.60;102431.00;;;;5066065;28;20196;-47
2024/01/12 07:46:33;;;;;;;5.20;4.73;;;16.80;54.50;17.60;102443.00;;;;5066497;28;20681;-46
2024/01/12 07:48:59;;;;;;;5.20;4.80;;;16.80;54.40;17.60;102440.00;;;;5059771;28;20277;-45
2024/01/12 07:51:25;;;;;;;4.90;4.50;;;16.80;54.40;17.60;102442.00;;;;5067943;28;20265;-46
2024/01/12 07:53:51;;;;;;;5.53;5.03;;;16.80;54.30;17.60;102439.00;;;;5068103;28;20208;-47
2024/01/12 07:56:17;;;;;;;5.30;4.80;;;16.80;55.00;17.60;102453.00;;;;5067972;28;20207;-48
2024/01/12 07:58:43;;;;;;;5.00;4.60;;;16.80;54.40;17.60;102440.00;;;;5045247;28;20248;-47
2024/01/12 08:01:15;;;;;;;4.73;4.33;;;16.70;54.40;17.60;102447.00;;;;5066473;28;20208;-47
2024/01/12 08:03:43;;;;;;;4.97;4.57;;;16.80;54.40;17.60;102455.00;;;;5067592;28;20595;-46
2024/01/12 08:06:08;;;;;;;5.10;4.60;;;16.80;54.40;17.60;102453.00;;;;5065784;28;20557;-47
2024/01/12 08:08:34;;;;;;;5.00;4.60;;;16.80;54.30;17.60;102451.00;;;;5065527;28;20169;-46
2024/01/12 08:11:00;;;;;;;5.13;4.67;;;16.80;54.30;17.60;102464.00;;;;5049668;28;20208;-45
2024/01/12 08:13:25;;;;;;;4.70;4.30;;;16.80;54.30;17.60;102455.00;;;;5067701;28;20224;-46
2024/01/12 08:15:51;;;;;;;4.93;4.47;;;16.80;54.20;17.60;102454.00;;;;5070161;28;20228;-47
2024/01/12 08:18:18;;;;;;;4.60;4.20;;;16.80;54.20;17.60;102451.00;;;;5066227;28;20250;-46
2024/01/12 08:20:45;;;;;;;4.83;4.43;;;16.80;54.20;17.60;102441.00;;;;5066277;28;20699;-46
2024/01/12 08:23:11;;;;;;;5.07;4.60;;;16.80;54.20;17.60;102442.00;;;;5040243;28;20197;-46
2024/01/12 08:25:37;;;;;;;5.10;4.60;;;16.80;54.10;17.60;102447.00;;;;5061485;28;20197;-46
2024/01/12 08:28:03;;;;;;;4.70;4.30;;;16.80;54.20;17.60;102446.00;;;;5048432;28;20230;-46
2024/01/12 08:30:28;;;;;;;5.37;4.87;;;16.80;54.10;17.60;102446.00;;;;5064465;28;20205;-46
2024/01/12 08:32:55;;;;;;;4.70;4.10;;;16.80;54.20;17.60;102451.00;;;;5065009;28;20168;-46
2024/01/12 08:35:20;;;;;;;4.60;4.20;;;16.80;54.20;17.70;102456.00;;;;5071142;28;20629;-47
2024/01/12 08:37:46;;;;;;;4.90;4.50;;;16.80;54.10;17.70;102451.00;;;;5063297;28;20185;-50
2024/01/12 08:40:12;;;;;;;4.20;3.90;;;16.80;54.20;17.70;102459.00;;;;5065245;28;20248;-46
2024/01/12 08:42:39;;;;;;;4.40;4.00;;;16.80;54.20;17.60;102450.00;;;;5065649;28;20254;-46
2024/01/12 08:45:05;;;;;;;4.50;4.10;;;16.80;54.90;17.60;102452.00;;;;5068348;28;20197;-46
2024/01/12 08:47:31;;;;;;;4.67;4.27;;;16.80;54.20;17.60;102449.00;;;;5067273;28;20804;-47
2024/01/12 08:49:58;;;;;;;5.13;4.60;;;16.80;54.20;17.60;102455.00;;;;5050979;28;20201;-47
2024/01/12 08:52:24;;;;;;;4.60;4.20;;;16.80;54.20;17.60;102449.00;;;;5071720;28;20705;-46
2024/01/12 08:54:50;;;;;;;4.50;4.10;;;16.80;54.20;17.60;102461.00;;;;5062141;28;20696;-46
2024/01/12 08:57:15;;;;;;;4.83;4.43;;;16.90;54.30;17.60;102459.00;;;;5044646;28;20220;-47
2024/01/12 08:59:41;;;;;;;4.53;4.13;;;16.80;54.20;17.60;102451.00;;;;5066555;28;20174;-47
2024/01/12 09:02:07;;;;;;;4.40;4.00;;;16.80;54.80;17.60;102462.00;;;;5065600;28;20192;-47
2024/01/12 09:04:36;;;;;;;4.20;3.90;;;16.80;54.10;17.60;102470.00;;;;5066577;28;20239;-47
2024/01/12 09:07:02;;;;;;;4.23;3.93;;;16.80;54.20;17.60;102462.00;;;;5063500;28;20181;-46
2024/01/12 09:09:28;;;;;;;4.50;4.10;;;16.80;54.10;17.70;102461.00;;;;5069318;28;20502;-47
2024/01/12 09:11:54;;;;;;;5.10;4.37;;;16.80;54.10;17.60;102465.00;;;;5065020;28;20177;-47
2024/01/12 09:14:19;;;;;;;4.30;3.90;;;16.80;54.10;17.60;102476.00;;;;5059582;28;20193;-46
2024/01/12 09:16:45;;;;;;;4.40;4.00;;;16.80;54.10;17.70;102469.00;;;;5065608;28;20238;-47
2024/01/12 09:19:11;;;;;;;4.50;4.10;;;16.80;54.10;17.70;102466.00;;;;5065676;28;20882;-48
2024/01/12 09:21:38;;;;;;;4.60;4.20;;;16.90;54.20;17.70;102475.00;;;;5066598;28;20182;-47
2024/01/12 09:24:04;;;;;;;4.60;4.20;;;16.80;54.10;17.70;102476.00;;;;5064868;28;20213;-47
2024/01/12 09:26:30;;;;;;;4.50;4.10;;;16.80;54.20;17.70;102476.00;;;;5060110;28;20215;-48
2024/01/12 09:28:56;;;;;;;4.63;4.23;;;16.90;54.20;17.70;102472.00;;;;5063862;28;20197;-47
2024/01/12 09:31:21;;;;;;;4.47;4.07;;;16.80;54.20;17.70;102460.00;;;;5067968;28;20213;-47
2024/01/12 09:33:47;;;;;;;4.50;4.10;;;16.80;54.20;17.60;102447.00;;;;5065973;28;20174;-47
2024/01/12 09:36:13;;;;;;;4.60;4.20;;;16.80;54.20;17.60;102452.00;;;;5067838;28;20185;-46
2024/01/12 09:38:39;;;;;;;4.43;4.03;;;16.80;54.30;17.60;102460.00;;;;5068930;28;20202;-48
2024/01/12 09:41:04;;;;;;;4.50;4.10;;;16.80;54.30;17.60;102461.00;;;;5070749;28;20190;-47
2024/01/12 09:43:30;;;;;;;4.90;4.50;;;16.80;54.30;17.60;102448.00;;;;5043389;28;20196;-47
2024/01/12 09:46:00;;;;;;;4.50;4.10;;;16.80;54.20;17.60;102467.00;;;;5060612;28;20196;-47
2024/01/12 09:48:27;;;;;;;4.70;4.30;;;16.80;54.10;17.70;102477.00;;;;5068131;28;20248;-46
2024/01/12 09:50:54;;;;;;;4.30;3.90;;;16.90;54.20;17.70;102480.00;;;;5067091;28;20232;-46
2024/01/12 09:53:19;;;;;;;4.30;4.00;;;16.80;54.10;17.70;102485.00;;;;5040329;28;20177;-47
2024/01/12 09:55:45;;;;;;;4.60;4.13;;;16.90;54.20;17.70;102486.00;;;;5035369;28;20681;-46
2024/01/12 09:58:11;;;;;;;4.60;4.20;;;16.90;54.20;17.70;102489.00;;;;5070005;28;20269;-46
2024/01/12 10:00:37;;;;;;;4.60;4.20;;;16.90;54.20;17.70;102474.00;;;;5068752;28;20683;-46
2024/01/12 10:03:06;;;;;;;4.73;4.20;;;16.90;54.20;17.70;102485.00;;;;5044050;28;20752;-47
2024/01/12 10:05:31;;;;;;;4.33;3.93;;;16.90;54.20;17.70;102483.00;;;;5045248;28;20337;-46
2024/01/12 10:07:58;;;;;;;4.33;3.93;;;16.90;54.20;17.70;102399.00;;;;5049693;28;20678;-47
2024/01/12 10:10:24;;;;;;;5.00;4.17;;;16.80;54.10;17.70;102488.00;;;;5066290;28;20200;-47
2024/01/12 10:12:49;;;;;;;5.90;4.30;;;16.80;54.10;17.70;102486.00;;;;5068782;28;20229;-47
2024/01/12 10:15:15;;;;;;;4.50;4.10;;;16.80;54.20;17.70;102468.00;;;;5074904;28;20220;-47
2024/01/12 10:17:41;;;;;;;4.60;4.20;;;16.80;54.20;17.70;102482.00;;;;5070822;28;20177;-47
2024/01/12 10:20:07;;;;;;;4.60;3.93;;;16.80;54.10;17.70;102485.00;;;;5071019;28;20192;-46
2024/01/12 10:22:33;;;;;;;4.67;4.27;;;16.80;54.10;17.70;102478.00;;;;5070606;28;20568;-47
2024/01/12 10:25:03;;;;;;;4.67;4.27;;;16.80;54.10;17.60;102476.00;;;;5070031;28;20238;-47
2024/01/12 10:27:30;;;;;;;4.33;3.90;;;16.90;54.20;17.70;102471.00;;;;5075554;28;20188;-47
2024/01/12 10:29:59;;;;;;;4.67;4.20;;;16.90;54.20;17.70;102472.00;;;;5049162;28;20681;-48
2024/01/12 10:32:25;;;;;;;6.40;4.37;;;16.90;54.20;17.70;102479.00;;;;5069951;28;20187;-46
2024/01/12 10:34:52;;;;;;;5.70;4.10;;;16.90;54.80;17.70;102477.00;;;;5070474;28;20696;-46
2024/01/12 10:37:18;;;;;;;5.47;4.10;;;16.90;54.20;17.70;102468.00;;;;5071528;28;20183;-47
2024/01/12 10:39:46;;;;;;;7.23;4.10;;;16.90;54.20;17.70;102466.00;;;;5071693;28;20557;-47
2024/01/12 10:42:12;;;;;;;6.07;4.13;;;16.90;54.20;17.70;102459.00;;;;5080161;28;20181;-47